sensor_id;sensor_type;location;lat;lon;timestamp;P1;durP1;ratioP1;P2;durP2;ratioP2
75506;SDS011;64086;43.220;27.878;2023-01-09T00:00:12;7.95;;;6.03;;
75506;SDS011;64086;43.220;27.878;2023-01-09T00:02:39;9.80;;;6.22;;
75506;SDS011;64086;43.220;27.878;2023-01-09T00:05:09;7.13;;;4.70;;
75506;SDS011;64086;43.220;27.878;2023-01-09T00:07:35;6.82;;;5.07;;
75506;SDS011;64086;43.220;27.878;2023-01-09T00:10:00;8.88;;;5.18;;
75506;SDS011;64086;43.220;27.878;2023-01-09T00:12:26;6.90;;;4.43;;
75506;SDS011;64086;43.220;27.878;2023-01-09T00:14:51;7.00;;;4.88;;
75506;SDS011;64086;43.220;27.878;2023-01-09T00:17:17;6.38;;;4.57;;
75506;SDS011;64086;43.220;27.878;2023-01-09T00:19:42;7.00;;;5.15;;
75506;SDS011;64086;43.220;27.878;2023-01-09T00:22:07;7.28;;;4.32;;
75506;SDS011;64086;43.220;27.878;2023-01-09T00:24:34;7.47;;;4.43;;
75506;SDS011;64086;43.220;27.878;2023-01-09T00:27:00;6.43;;;4.25;;
75506;SDS011;64086;43.220;27.878;2023-01-09T00:29:26;5.60;;;3.80;;
75506;SDS011;64086;43.220;27.878;2023-01-09T00:31:51;6.20;;;4.28;;
75506;SDS011;64086;43.220;27.878;2023-01-09T00:34:16;6.30;;;4.05;;
75506;SDS011;64086;43.220;27.878;2023-01-09T00:36:42;7.15;;;4.10;;
75506;SDS011;64086;43.220;27.878;2023-01-09T00:39:07;5.85;;;4.13;;
75506;SDS011;64086;43.220;27.878;2023-01-09T00:44:13;7.45;;;4.40;;
75506;SDS011;64086;43.220;27.878;2023-01-09T00:46:42;5.18;;;3.65;;
75506;SDS011;64086;43.220;27.878;2023-01-09T00:49:09;6.93;;;4.97;;
75506;SDS011;64086;43.220;27.878;2023-01-09T00:51:36;7.95;;;5.05;;
75506;SDS011;64086;43.220;27.878;2023-01-09T00:54:02;9.98;;;4.82;;
75506;SDS011;64086;43.220;27.878;2023-01-09T00:56:28;5.63;;;3.50;;
75506;SDS011;64086;43.220;27.878;2023-01-09T00:58:53;6.47;;;4.25;;
75506;SDS011;64086;43.220;27.878;2023-01-09T01:01:19;6.38;;;4.45;;
75506;SDS011;64086;43.220;27.878;2023-01-09T01:03:45;9.05;;;5.30;;
75506;SDS011;64086;43.220;27.878;2023-01-09T01:06:10;7.03;;;4.35;;
75506;SDS011;64086;43.220;27.878;2023-01-09T01:11:22;8.80;;;4.93;;
75506;SDS011;64086;43.220;27.878;2023-01-09T01:13:48;7.35;;;5.25;;
75506;SDS011;64086;43.220;27.878;2023-01-09T01:16:14;12.02;;;6.70;;
75506;SDS011;64086;43.220;27.878;2023-01-09T01:18:39;7.25;;;4.38;;
75506;SDS011;64086;43.220;27.878;2023-01-09T01:21:10;7.72;;;3.92;;
75506;SDS011;64086;43.220;27.878;2023-01-09T01:23:36;9.20;;;5.57;;
75506;SDS011;64086;43.220;27.878;2023-01-09T01:26:10;8.57;;;5.40;;
75506;SDS011;64086;43.220;27.878;2023-01-09T01:28:37;6.47;;;4.40;;
75506;SDS011;64086;43.220;27.878;2023-01-09T01:31:03;5.40;;;3.58;;
75506;SDS011;64086;43.220;27.878;2023-01-09T01:33:29;6.25;;;4.47;;
75506;SDS011;64086;43.220;27.878;2023-01-09T01:35:59;6.95;;;4.90;;
75506;SDS011;64086;43.220;27.878;2023-01-09T01:38:25;8.15;;;4.95;;
75506;SDS011;64086;43.220;27.878;2023-01-09T01:40:51;5.60;;;3.95;;
75506;SDS011;64086;43.220;27.878;2023-01-09T01:43:17;7.90;;;4.63;;
75506;SDS011;64086;43.220;27.878;2023-01-09T01:45:43;8.73;;;4.63;;
75506;SDS011;64086;43.220;27.878;2023-01-09T01:48:12;7.22;;;4.40;;
75506;SDS011;64086;43.220;27.878;2023-01-09T01:53:28;5.22;;;3.30;;
75506;SDS011;64086;43.220;27.878;2023-01-09T01:58:36;6.03;;;3.80;;
75506;SDS011;64086;43.220;27.878;2023-01-09T02:01:04;7.63;;;4.03;;
75506;SDS011;64086;43.220;27.878;2023-01-09T02:03:29;5.35;;;4.13;;
75506;SDS011;64086;43.220;27.878;2023-01-09T02:05:55;5.75;;;4.00;;
75506;SDS011;64086;43.220;27.878;2023-01-09T02:08:20;6.78;;;4.55;;
75506;SDS011;64086;43.220;27.878;2023-01-09T02:10:47;11.77;;;9.20;;
75506;SDS011;64086;43.220;27.878;2023-01-09T02:13:13;17.40;;;13.18;;
75506;SDS011;64086;43.220;27.878;2023-01-09T02:21:12;5.72;;;4.40;;
75506;SDS011;64086;43.220;27.878;2023-01-09T02:40:43;5.97;;;4.22;;
75506;SDS011;64086;43.220;27.878;2023-01-09T02:43:10;7.03;;;3.45;;
75506;SDS011;64086;43.220;27.878;2023-01-09T02:45:36;7.15;;;4.43;;
75506;SDS011;64086;43.220;27.878;2023-01-09T02:48:02;5.70;;;3.53;;
75506;SDS011;64086;43.220;27.878;2023-01-09T03:04:29;6.47;;;3.08;;
75506;SDS011;64086;43.220;27.878;2023-01-09T03:07:11;6.50;;;3.10;;
75506;SDS011;64086;43.220;27.878;2023-01-09T03:09:42;4.85;;;2.85;;
75506;SDS011;64086;43.220;27.878;2023-01-09T03:12:16;6.53;;;3.35;;
75506;SDS011;64086;43.220;27.878;2023-01-09T03:14:45;6.03;;;3.05;;
75506;SDS011;64086;43.220;27.878;2023-01-09T03:17:13;5.70;;;3.50;;
75506;SDS011;64086;43.220;27.878;2023-01-09T03:19:40;6.93;;;3.60;;
75506;SDS011;64086;43.220;27.878;2023-01-09T03:22:06;7.38;;;3.30;;
75506;SDS011;64086;43.220;27.878;2023-01-09T03:24:32;8.27;;;3.25;;
75506;SDS011;64086;43.220;27.878;2023-01-09T03:26:58;6.28;;;2.95;;
75506;SDS011;64086;43.220;27.878;2023-01-09T03:29:23;5.38;;;2.63;;
75506;SDS011;64086;43.220;27.878;2023-01-09T03:31:49;5.78;;;3.33;;
75506;SDS011;64086;43.220;27.878;2023-01-09T03:34:14;5.47;;;3.20;;
75506;SDS011;64086;43.220;27.878;2023-01-09T03:36:40;6.95;;;3.45;;
75506;SDS011;64086;43.220;27.878;2023-01-09T03:39:05;5.20;;;2.38;;
75506;SDS011;64086;43.220;27.878;2023-01-09T03:41:31;5.50;;;3.03;;
75506;SDS011;64086;43.220;27.878;2023-01-09T03:43:56;10.02;;;3.45;;
75506;SDS011;64086;43.220;27.878;2023-01-09T03:46:22;4.95;;;2.88;;
75506;SDS011;64086;43.220;27.878;2023-01-09T03:48:47;4.95;;;3.28;;
75506;SDS011;64086;43.220;27.878;2023-01-09T03:51:12;6.93;;;3.42;;
75506;SDS011;64086;43.220;27.878;2023-01-09T03:53:38;6.88;;;3.08;;
75506;SDS011;64086;43.220;27.878;2023-01-09T03:56:03;6.80;;;3.22;;
75506;SDS011;64086;43.220;27.878;2023-01-09T03:58:29;4.10;;;2.45;;
75506;SDS011;64086;43.220;27.878;2023-01-09T04:00:58;4.72;;;2.20;;
75506;SDS011;64086;43.220;27.878;2023-01-09T04:03:25;5.40;;;2.30;;
75506;SDS011;64086;43.220;27.878;2023-01-09T04:05:51;4.20;;;2.50;;
75506;SDS011;64086;43.220;27.878;2023-01-09T04:08:16;7.03;;;3.13;;
75506;SDS011;64086;43.220;27.878;2023-01-09T04:10:46;4.55;;;2.83;;
75506;SDS011;64086;43.220;27.878;2023-01-09T04:13:14;5.80;;;2.70;;
75506;SDS011;64086;43.220;27.878;2023-01-09T04:15:40;9.02;;;3.40;;
75506;SDS011;64086;43.220;27.878;2023-01-09T04:18:05;5.47;;;3.15;;
75506;SDS011;64086;43.220;27.878;2023-01-09T04:20:31;7.43;;;3.08;;
75506;SDS011;64086;43.220;27.878;2023-01-09T04:22:57;7.05;;;3.00;;
75506;SDS011;64086;43.220;27.878;2023-01-09T04:25:23;5.15;;;3.15;;
75506;SDS011;64086;43.220;27.878;2023-01-09T04:27:49;6.55;;;2.75;;
75506;SDS011;64086;43.220;27.878;2023-01-09T04:30:15;7.53;;;2.95;;
75506;SDS011;64086;43.220;27.878;2023-01-09T04:32:40;7.88;;;3.65;;
75506;SDS011;64086;43.220;27.878;2023-01-09T04:35:06;7.40;;;4.50;;
75506;SDS011;64086;43.220;27.878;2023-01-09T04:37:32;7.32;;;4.75;;
75506;SDS011;64086;43.220;27.878;2023-01-09T04:40:00;7.95;;;4.32;;
75506;SDS011;64086;43.220;27.878;2023-01-09T04:42:26;9.15;;;4.10;;
75506;SDS011;64086;43.220;27.878;2023-01-09T04:44:51;5.43;;;3.08;;
75506;SDS011;64086;43.220;27.878;2023-01-09T04:47:18;6.95;;;2.70;;
75506;SDS011;64086;43.220;27.878;2023-01-09T04:49:44;4.68;;;2.95;;
75506;SDS011;64086;43.220;27.878;2023-01-09T04:52:10;5.95;;;3.17;;
75506;SDS011;64086;43.220;27.878;2023-01-09T04:54:35;8.00;;;3.67;;
75506;SDS011;64086;43.220;27.878;2023-01-09T04:57:03;6.45;;;3.75;;
75506;SDS011;64086;43.220;27.878;2023-01-09T04:59:29;6.25;;;4.03;;
75506;SDS011;64086;43.220;27.878;2023-01-09T05:01:54;5.03;;;3.58;;
75506;SDS011;64086;43.220;27.878;2023-01-09T05:04:22;6.60;;;3.00;;
75506;SDS011;64086;43.220;27.878;2023-01-09T05:06:48;5.85;;;3.22;;
75506;SDS011;64086;43.220;27.878;2023-01-09T05:09:13;8.90;;;3.60;;
75506;SDS011;64086;43.220;27.878;2023-01-09T05:11:39;7.00;;;3.17;;
75506;SDS011;64086;43.220;27.878;2023-01-09T05:14:04;6.90;;;3.28;;
75506;SDS011;64086;43.220;27.878;2023-01-09T05:16:29;7.50;;;3.45;;
75506;SDS011;64086;43.220;27.878;2023-01-09T05:18:56;7.18;;;3.50;;
75506;SDS011;64086;43.220;27.878;2023-01-09T05:21:25;8.05;;;3.47;;
75506;SDS011;64086;43.220;27.878;2023-01-09T05:23:51;8.65;;;5.30;;
75506;SDS011;64086;43.220;27.878;2023-01-09T05:26:17;7.85;;;3.92;;
75506;SDS011;64086;43.220;27.878;2023-01-09T05:28:43;9.10;;;3.78;;
75506;SDS011;64086;43.220;27.878;2023-01-09T05:31:08;7.90;;;3.80;;
75506;SDS011;64086;43.220;27.878;2023-01-09T05:33:34;7.20;;;3.60;;
75506;SDS011;64086;43.220;27.878;2023-01-09T05:35:59;7.82;;;3.00;;
75506;SDS011;64086;43.220;27.878;2023-01-09T05:38:25;9.02;;;3.97;;
75506;SDS011;64086;43.220;27.878;2023-01-09T05:40:50;7.30;;;3.75;;
75506;SDS011;64086;43.220;27.878;2023-01-09T05:43:16;9.13;;;3.78;;
75506;SDS011;64086;43.220;27.878;2023-01-09T05:45:41;10.07;;;3.83;;
75506;SDS011;64086;43.220;27.878;2023-01-09T05:48:07;7.32;;;4.00;;
75506;SDS011;64086;43.220;27.878;2023-01-09T05:50:32;10.00;;;4.35;;
75506;SDS011;64086;43.220;27.878;2023-01-09T05:52:58;9.75;;;3.75;;
75506;SDS011;64086;43.220;27.878;2023-01-09T05:55:23;6.82;;;3.30;;
75506;SDS011;64086;43.220;27.878;2023-01-09T05:57:49;6.80;;;2.88;;
75506;SDS011;64086;43.220;27.878;2023-01-09T06:00:14;9.05;;;3.45;;
75506;SDS011;64086;43.220;27.878;2023-01-09T06:02:40;7.95;;;2.90;;
75506;SDS011;64086;43.220;27.878;2023-01-09T06:05:06;8.23;;;3.65;;
75506;SDS011;64086;43.220;27.878;2023-01-09T06:07:32;8.60;;;4.32;;
75506;SDS011;64086;43.220;27.878;2023-01-09T06:10:00;8.35;;;3.25;;
75506;SDS011;64086;43.220;27.878;2023-01-09T06:12:26;7.38;;;5.00;;
75506;SDS011;64086;43.220;27.878;2023-01-09T06:14:51;12.20;;;5.63;;
75506;SDS011;64086;43.220;27.878;2023-01-09T06:17:16;6.60;;;3.60;;
75506;SDS011;64086;43.220;27.878;2023-01-09T06:19:42;8.38;;;3.95;;
75506;SDS011;64086;43.220;27.878;2023-01-09T06:22:07;9.57;;;4.50;;
75506;SDS011;64086;43.220;27.878;2023-01-09T06:24:33;9.68;;;4.47;;
75506;SDS011;64086;43.220;27.878;2023-01-09T06:26:58;11.27;;;6.82;;
75506;SDS011;64086;43.220;27.878;2023-01-09T06:29:24;11.40;;;6.32;;
75506;SDS011;64086;43.220;27.878;2023-01-09T06:31:49;11.52;;;3.95;;
75506;SDS011;64086;43.220;27.878;2023-01-09T06:34:14;7.05;;;4.10;;
75506;SDS011;64086;43.220;27.878;2023-01-09T06:36:40;10.25;;;4.70;;
75506;SDS011;64086;43.220;27.878;2023-01-09T06:39:05;7.40;;;3.08;;
75506;SDS011;64086;43.220;27.878;2023-01-09T06:41:31;10.07;;;4.18;;
75506;SDS011;64086;43.220;27.878;2023-01-09T06:43:56;10.07;;;4.40;;
75506;SDS011;64086;43.220;27.878;2023-01-09T06:46:22;7.38;;;2.90;;
75506;SDS011;64086;43.220;27.878;2023-01-09T06:48:47;7.28;;;3.70;;
75506;SDS011;64086;43.220;27.878;2023-01-09T06:51:13;11.38;;;4.55;;
75506;SDS011;64086;43.220;27.878;2023-01-09T06:53:38;7.82;;;5.47;;
75506;SDS011;64086;43.220;27.878;2023-01-09T06:56:04;10.10;;;5.85;;
75506;SDS011;64086;43.220;27.878;2023-01-09T06:58:29;12.98;;;5.28;;
75506;SDS011;64086;43.220;27.878;2023-01-09T07:00:56;11.02;;;5.55;;
75506;SDS011;64086;43.220;27.878;2023-01-09T07:03:22;7.80;;;3.75;;
75506;SDS011;64086;43.220;27.878;2023-01-09T07:05:48;8.82;;;4.93;;
75506;SDS011;64086;43.220;27.878;2023-01-09T07:08:14;8.40;;;5.28;;
75506;SDS011;64086;43.220;27.878;2023-01-09T07:10:40;8.43;;;3.90;;
75506;SDS011;64086;43.220;27.878;2023-01-09T07:13:06;5.63;;;3.70;;
75506;SDS011;64086;43.220;27.878;2023-01-09T07:15:31;9.32;;;3.80;;
75506;SDS011;64086;43.220;27.878;2023-01-09T07:17:57;5.47;;;3.08;;
75506;SDS011;64086;43.220;27.878;2023-01-09T07:20:22;11.38;;;3.80;;
75506;SDS011;64086;43.220;27.878;2023-01-09T07:22:48;7.35;;;3.65;;
75506;SDS011;64086;43.220;27.878;2023-01-09T07:25:13;7.18;;;4.00;;
75506;SDS011;64086;43.220;27.878;2023-01-09T07:27:39;12.60;;;6.70;;
75506;SDS011;64086;43.220;27.878;2023-01-09T07:30:04;10.95;;;3.90;;
75506;SDS011;64086;43.220;27.878;2023-01-09T07:32:31;8.10;;;4.10;;
75506;SDS011;64086;43.220;27.878;2023-01-09T07:34:57;9.05;;;4.55;;
75506;SDS011;64086;43.220;27.878;2023-01-09T07:37:22;9.60;;;4.55;;
75506;SDS011;64086;43.220;27.878;2023-01-09T07:39:48;6.75;;;3.03;;
75506;SDS011;64086;43.220;27.878;2023-01-09T07:42:13;7.55;;;3.47;;
75506;SDS011;64086;43.220;27.878;2023-01-09T07:44:39;9.27;;;4.63;;
75506;SDS011;64086;43.220;27.878;2023-01-09T07:47:04;10.80;;;3.30;;
75506;SDS011;64086;43.220;27.878;2023-01-09T07:49:30;10.15;;;4.45;;
75506;SDS011;64086;43.220;27.878;2023-01-09T07:51:55;7.00;;;4.43;;
75506;SDS011;64086;43.220;27.878;2023-01-09T07:54:21;10.45;;;4.50;;
75506;SDS011;64086;43.220;27.878;2023-01-09T07:56:46;9.52;;;4.22;;
75506;SDS011;64086;43.220;27.878;2023-01-09T07:59:12;5.95;;;2.75;;
75506;SDS011;64086;43.220;27.878;2023-01-09T08:01:38;5.78;;;3.15;;
75506;SDS011;64086;43.220;27.878;2023-01-09T08:04:03;9.52;;;3.35;;
75506;SDS011;64086;43.220;27.878;2023-01-09T08:06:28;7.32;;;2.97;;
75506;SDS011;64086;43.220;27.878;2023-01-09T08:08:55;6.93;;;3.45;;
75506;SDS011;64086;43.220;27.878;2023-01-09T08:11:21;6.97;;;3.78;;
75506;SDS011;64086;43.220;27.878;2023-01-09T08:13:47;7.10;;;3.67;;
75506;SDS011;64086;43.220;27.878;2023-01-09T08:16:12;4.38;;;2.10;;
75506;SDS011;64086;43.220;27.878;2023-01-09T08:18:38;5.63;;;2.60;;
75506;SDS011;64086;43.220;27.878;2023-01-09T08:21:04;6.13;;;2.25;;
75506;SDS011;64086;43.220;27.878;2023-01-09T08:23:29;7.25;;;3.42;;
75506;SDS011;64086;43.220;27.878;2023-01-09T08:25:54;7.30;;;4.05;;
75506;SDS011;64086;43.220;27.878;2023-01-09T08:28:20;5.63;;;2.80;;
75506;SDS011;64086;43.220;27.878;2023-01-09T08:30:46;6.43;;;4.20;;
75506;SDS011;64086;43.220;27.878;2023-01-09T08:33:11;6.35;;;3.97;;
75506;SDS011;64086;43.220;27.878;2023-01-09T08:35:37;7.20;;;3.90;;
75506;SDS011;64086;43.220;27.878;2023-01-09T08:38:02;8.63;;;3.33;;
75506;SDS011;64086;43.220;27.878;2023-01-09T08:40:28;8.90;;;3.83;;
75506;SDS011;64086;43.220;27.878;2023-01-09T08:42:54;9.13;;;5.18;;
75506;SDS011;64086;43.220;27.878;2023-01-09T08:45:37;8.07;;;3.72;;
75506;SDS011;64086;43.220;27.878;2023-01-09T08:48:21;8.77;;;4.63;;
75506;SDS011;64086;43.220;27.878;2023-01-09T08:50:47;9.10;;;3.92;;
75506;SDS011;64086;43.220;27.878;2023-01-09T08:53:12;7.72;;;3.30;;
75506;SDS011;64086;43.220;27.878;2023-01-09T08:55:39;9.27;;;4.13;;
75506;SDS011;64086;43.220;27.878;2023-01-09T08:58:04;10.13;;;5.90;;
75506;SDS011;64086;43.220;27.878;2023-01-09T09:00:30;10.32;;;3.53;;
75506;SDS011;64086;43.220;27.878;2023-01-09T09:02:56;8.77;;;4.10;;
75506;SDS011;64086;43.220;27.878;2023-01-09T09:05:23;6.38;;;2.85;;
75506;SDS011;64086;43.220;27.878;2023-01-09T09:07:50;7.13;;;3.92;;
75506;SDS011;64086;43.220;27.878;2023-01-09T09:10:17;7.15;;;2.92;;
75506;SDS011;64086;43.220;27.878;2023-01-09T09:12:43;5.95;;;3.15;;
75506;SDS011;64086;43.220;27.878;2023-01-09T09:15:12;6.45;;;2.70;;
75506;SDS011;64086;43.220;27.878;2023-01-09T09:17:39;5.57;;;3.17;;
75506;SDS011;64086;43.220;27.878;2023-01-09T09:20:05;7.53;;;3.85;;
75506;SDS011;64086;43.220;27.878;2023-01-09T09:22:32;6.35;;;2.85;;
75506;SDS011;64086;43.220;27.878;2023-01-09T09:24:57;7.85;;;3.40;;
75506;SDS011;64086;43.220;27.878;2023-01-09T09:27:23;9.90;;;4.10;;
75506;SDS011;64086;43.220;27.878;2023-01-09T09:29:48;9.63;;;4.53;;
75506;SDS011;64086;43.220;27.878;2023-01-09T09:32:14;8.82;;;3.95;;
75506;SDS011;64086;43.220;27.878;2023-01-09T09:34:39;11.57;;;5.85;;
75506;SDS011;64086;43.220;27.878;2023-01-09T09:37:05;11.23;;;5.00;;
75506;SDS011;64086;43.220;27.878;2023-01-09T09:39:30;7.70;;;5.43;;
75506;SDS011;64086;43.220;27.878;2023-01-09T09:48:34;7.57;;;4.28;;
75506;SDS011;64086;43.220;27.878;2023-01-09T09:56:35;5.63;;;4.18;;
75506;SDS011;64086;43.220;27.878;2023-01-09T09:59:10;7.72;;;3.75;;
75506;SDS011;64086;43.220;27.878;2023-01-09T10:01:40;6.22;;;4.10;;
75506;SDS011;64086;43.220;27.878;2023-01-09T10:04:10;8.10;;;4.15;;
75506;SDS011;64086;43.220;27.878;2023-01-09T10:06:42;10.75;;;4.60;;
75506;SDS011;64086;43.220;27.878;2023-01-09T10:14:43;9.10;;;6.15;;
75506;SDS011;64086;43.220;27.878;2023-01-09T10:30:46;6.65;;;4.80;;
75506;SDS011;64086;43.220;27.878;2023-01-09T10:38:22;9.50;;;5.05;;
75506;SDS011;64086;43.220;27.878;2023-01-09T10:40:59;8.55;;;6.00;;
75506;SDS011;64086;43.220;27.878;2023-01-09T10:46:00;10.00;;;5.72;;
75506;SDS011;64086;43.220;27.878;2023-01-09T10:48:29;9.07;;;5.07;;
75506;SDS011;64086;43.220;27.878;2023-01-09T10:50:58;10.35;;;5.20;;
75506;SDS011;64086;43.220;27.878;2023-01-09T10:58:43;10.43;;;5.50;;
75506;SDS011;64086;43.220;27.878;2023-01-09T11:01:08;10.80;;;5.80;;
75506;SDS011;64086;43.220;27.878;2023-01-09T11:03:34;10.93;;;5.90;;
75506;SDS011;64086;43.220;27.878;2023-01-09T11:05:59;10.45;;;6.50;;
75506;SDS011;64086;43.220;27.878;2023-01-09T11:11:11;12.10;;;5.90;;
75506;SDS011;64086;43.220;27.878;2023-01-09T11:13:38;9.68;;;4.60;;
75506;SDS011;64086;43.220;27.878;2023-01-09T11:16:16;7.53;;;4.68;;
75506;SDS011;64086;43.220;27.878;2023-01-09T11:23:52;8.50;;;5.40;;
75506;SDS011;64086;43.220;27.878;2023-01-09T11:26:25;9.48;;;5.40;;
75506;SDS011;64086;43.220;27.878;2023-01-09T11:29:10;12.52;;;4.88;;
75506;SDS011;64086;43.220;27.878;2023-01-09T11:31:40;11.45;;;7.03;;
75506;SDS011;64086;43.220;27.878;2023-01-09T11:34:23;8.55;;;4.82;;
75506;SDS011;64086;43.220;27.878;2023-01-09T11:36:52;10.30;;;4.78;;
75506;SDS011;64086;43.220;27.878;2023-01-09T11:39:24;13.20;;;5.82;;
75506;SDS011;64086;43.220;27.878;2023-01-09T11:41:52;10.60;;;5.50;;
75506;SDS011;64086;43.220;27.878;2023-01-09T11:44:19;11.05;;;6.07;;
75506;SDS011;64086;43.220;27.878;2023-01-09T11:46:44;13.90;;;5.80;;
75506;SDS011;64086;43.220;27.878;2023-01-09T11:51:39;7.82;;;5.00;;
75506;SDS011;64086;43.220;27.878;2023-01-09T11:56:55;10.23;;;5.68;;
75506;SDS011;64086;43.220;27.878;2023-01-09T11:59:24;9.90;;;6.55;;
75506;SDS011;64086;43.220;27.878;2023-01-09T12:10:33;8.90;;;6.00;;
75506;SDS011;64086;43.220;27.878;2023-01-09T12:13:33;10.88;;;7.30;;
75506;SDS011;64086;43.220;27.878;2023-01-09T12:36:20;11.38;;;7.88;;
75506;SDS011;64086;43.220;27.878;2023-01-09T12:41:24;11.32;;;7.80;;
75506;SDS011;64086;43.220;27.878;2023-01-09T12:46:33;9.05;;;6.80;;
75506;SDS011;64086;43.220;27.878;2023-01-09T12:49:25;11.27;;;7.25;;
75506;SDS011;64086;43.220;27.878;2023-01-09T12:51:54;13.65;;;8.30;;
75506;SDS011;64086;43.220;27.878;2023-01-09T12:54:28;12.02;;;7.90;;
75506;SDS011;64086;43.220;27.878;2023-01-09T12:56:59;14.23;;;9.32;;
75506;SDS011;64086;43.220;27.878;2023-01-09T12:59:36;15.07;;;9.32;;
75506;SDS011;64086;43.220;27.878;2023-01-09T13:04:34;12.18;;;7.47;;
75506;SDS011;64086;43.220;27.878;2023-01-09T13:07:05;12.55;;;8.43;;
75506;SDS011;64086;43.220;27.878;2023-01-09T13:12:17;12.50;;;9.55;;
75506;SDS011;64086;43.220;27.878;2023-01-09T13:20:03;16.38;;;9.82;;
75506;SDS011;64086;43.220;27.878;2023-01-09T13:22:42;14.57;;;9.63;;
75506;SDS011;64086;43.220;27.878;2023-01-09T13:28:01;15.60;;;10.93;;
75506;SDS011;64086;43.220;27.878;2023-01-09T13:36:02;15.07;;;10.02;;
75506;SDS011;64086;43.220;27.878;2023-01-09T13:38:30;22.05;;;13.02;;
75506;SDS011;64086;43.220;27.878;2023-01-09T13:41:10;15.77;;;11.20;;
75506;SDS011;64086;43.220;27.878;2023-01-09T13:44:05;15.80;;;11.65;;
75506;SDS011;64086;43.220;27.878;2023-01-09T13:46:44;15.85;;;11.25;;
75506;SDS011;64086;43.220;27.878;2023-01-09T13:52:05;16.88;;;10.95;;
75506;SDS011;64086;43.220;27.878;2023-01-09T14:05:12;12.35;;;8.50;;
75506;SDS011;64086;43.220;27.878;2023-01-09T14:07:39;11.30;;;7.63;;
75506;SDS011;64086;43.220;27.878;2023-01-09T14:10:25;10.25;;;7.65;;
75506;SDS011;64086;43.220;27.878;2023-01-09T14:12:59;13.75;;;7.53;;
75506;SDS011;64086;43.220;27.878;2023-01-09T14:15:37;11.70;;;8.60;;
75506;SDS011;64086;43.220;27.878;2023-01-09T14:18:05;14.98;;;10.00;;
75506;SDS011;64086;43.220;27.878;2023-01-09T14:20:42;13.02;;;9.50;;
75506;SDS011;64086;43.220;27.878;2023-01-09T14:23:20;11.48;;;7.32;;
75506;SDS011;64086;43.220;27.878;2023-01-09T14:25:47;13.82;;;10.13;;
75506;SDS011;64086;43.220;27.878;2023-01-09T14:28:28;19.80;;;12.55;;
75506;SDS011;64086;43.220;27.878;2023-01-09T14:33:29;17.35;;;10.02;;
75506;SDS011;64086;43.220;27.878;2023-01-09T14:46:52;16.10;;;9.30;;
75506;SDS011;64086;43.220;27.878;2023-01-09T14:49:39;14.02;;;9.80;;
75506;SDS011;64086;43.220;27.878;2023-01-09T14:52:28;16.83;;;9.75;;
75506;SDS011;64086;43.220;27.878;2023-01-09T14:54:56;16.50;;;10.10;;
75506;SDS011;64086;43.220;27.878;2023-01-09T15:02:36;14.07;;;9.02;;
75506;SDS011;64086;43.220;27.878;2023-01-09T15:05:03;17.40;;;11.13;;
75506;SDS011;64086;43.220;27.878;2023-01-09T15:07:33;20.13;;;12.10;;
75506;SDS011;64086;43.220;27.878;2023-01-09T15:10:05;16.20;;;12.27;;
75506;SDS011;64086;43.220;27.878;2023-01-09T15:12:31;15.10;;;10.73;;
75506;SDS011;64086;43.220;27.878;2023-01-09T15:14:58;16.75;;;10.25;;
75506;SDS011;64086;43.220;27.878;2023-01-09T15:17:28;19.00;;;10.88;;
75506;SDS011;64086;43.220;27.878;2023-01-09T15:19:59;20.77;;;13.82;;
75506;SDS011;64086;43.220;27.878;2023-01-09T15:22:30;16.90;;;10.82;;
75506;SDS011;64086;43.220;27.878;2023-01-09T15:24:56;16.05;;;11.45;;
75506;SDS011;64086;43.220;27.878;2023-01-09T15:27:22;18.27;;;11.07;;
75506;SDS011;64086;43.220;27.878;2023-01-09T15:29:48;17.77;;;11.98;;
75506;SDS011;64086;43.220;27.878;2023-01-09T15:32:16;15.27;;;12.05;;
75506;SDS011;64086;43.220;27.878;2023-01-09T15:34:42;15.68;;;13.07;;
75506;SDS011;64086;43.220;27.878;2023-01-09T15:37:23;13.52;;;9.30;;
75506;SDS011;64086;43.220;27.878;2023-01-09T15:39:52;17.23;;;11.32;;
75506;SDS011;64086;43.220;27.878;2023-01-09T15:42:28;14.35;;;9.85;;
75506;SDS011;64086;43.220;27.878;2023-01-09T15:45:21;17.08;;;11.10;;
75506;SDS011;64086;43.220;27.878;2023-01-09T15:48:13;18.25;;;11.68;;
75506;SDS011;64086;43.220;27.878;2023-01-09T15:53:38;17.27;;;11.07;;
75506;SDS011;64086;43.220;27.878;2023-01-09T15:58:47;16.50;;;12.52;;
75506;SDS011;64086;43.220;27.878;2023-01-09T16:06:53;17.30;;;12.82;;
75506;SDS011;64086;43.220;27.878;2023-01-09T16:09:27;17.73;;;11.63;;
75506;SDS011;64086;43.220;27.878;2023-01-09T16:11:58;23.38;;;13.93;;
75506;SDS011;64086;43.220;27.878;2023-01-09T16:14:32;18.17;;;12.23;;
75506;SDS011;64086;43.220;27.878;2023-01-09T16:17:03;15.93;;;9.82;;
75506;SDS011;64086;43.220;27.878;2023-01-09T16:19:42;18.50;;;11.30;;
75506;SDS011;64086;43.220;27.878;2023-01-09T16:24:48;17.58;;;10.85;;
75506;SDS011;64086;43.220;27.878;2023-01-09T16:29:53;17.23;;;11.88;;
75506;SDS011;64086;43.220;27.878;2023-01-09T16:32:24;18.40;;;12.85;;
75506;SDS011;64086;43.220;27.878;2023-01-09T16:34:55;20.35;;;11.75;;
75506;SDS011;64086;43.220;27.878;2023-01-09T16:37:22;22.27;;;12.35;;
75506;SDS011;64086;43.220;27.878;2023-01-09T16:42:29;18.52;;;13.80;;
75506;SDS011;64086;43.220;27.878;2023-01-09T16:45:13;20.02;;;14.60;;
75506;SDS011;64086;43.220;27.878;2023-01-09T16:47:38;19.00;;;14.20;;
75506;SDS011;64086;43.220;27.878;2023-01-09T16:50:04;24.50;;;19.42;;
75506;SDS011;64086;43.220;27.878;2023-01-09T16:52:30;25.17;;;18.52;;
75506;SDS011;64086;43.220;27.878;2023-01-09T16:54:55;22.45;;;15.27;;
75506;SDS011;64086;43.220;27.878;2023-01-09T16:57:20;21.63;;;14.90;;
75506;SDS011;64086;43.220;27.878;2023-01-09T16:59:46;17.50;;;13.35;;
75506;SDS011;64086;43.220;27.878;2023-01-09T17:02:16;20.73;;;12.07;;
75506;SDS011;64086;43.220;27.878;2023-01-09T17:04:43;18.83;;;10.75;;
75506;SDS011;64086;43.220;27.878;2023-01-09T17:07:10;26.55;;;18.02;;
75506;SDS011;64086;43.220;27.878;2023-01-09T17:09:37;26.05;;;22.50;;
75506;SDS011;64086;43.220;27.878;2023-01-09T17:12:03;28.70;;;19.05;;
75506;SDS011;64086;43.220;27.878;2023-01-09T17:14:29;17.20;;;11.60;;
75506;SDS011;64086;43.220;27.878;2023-01-09T17:16:55;21.98;;;15.13;;
75506;SDS011;64086;43.220;27.878;2023-01-09T17:19:20;23.40;;;15.30;;
75506;SDS011;64086;43.220;27.878;2023-01-09T17:21:47;17.92;;;14.35;;
75506;SDS011;64086;43.220;27.878;2023-01-09T17:24:12;21.58;;;14.68;;
75506;SDS011;64086;43.220;27.878;2023-01-09T17:26:57;23.75;;;15.00;;
75506;SDS011;64086;43.220;27.878;2023-01-09T17:29:41;24.85;;;17.67;;
75506;SDS011;64086;43.220;27.878;2023-01-09T17:32:08;24.60;;;16.95;;
75506;SDS011;64086;43.220;27.878;2023-01-09T17:34:38;26.42;;;18.55;;
75506;SDS011;64086;43.220;27.878;2023-01-09T17:37:03;24.63;;;17.88;;
75506;SDS011;64086;43.220;27.878;2023-01-09T17:39:29;23.30;;;17.88;;
75506;SDS011;64086;43.220;27.878;2023-01-09T17:41:54;31.95;;;20.80;;
75506;SDS011;64086;43.220;27.878;2023-01-09T17:44:21;26.60;;;19.10;;
75506;SDS011;64086;43.220;27.878;2023-01-09T17:46:47;30.02;;;21.17;;
75506;SDS011;64086;43.220;27.878;2023-01-09T17:49:18;26.27;;;16.55;;
75506;SDS011;64086;43.220;27.878;2023-01-09T17:51:44;30.60;;;20.17;;
75506;SDS011;64086;43.220;27.878;2023-01-09T17:54:10;26.02;;;18.83;;
75506;SDS011;64086;43.220;27.878;2023-01-09T17:56:36;28.27;;;19.40;;
75506;SDS011;64086;43.220;27.878;2023-01-09T17:59:03;32.25;;;23.52;;